首页
METAR-TAF:

METAR-TAF

机场 :

法兰克福机场

法兰克福, 德国

纬度: 50-03N, 经度: 008-36E, 海拔: 111米

当前天气观测

该预报发布于34分钟前的20:20 UTC
风速9节,风向北转东北
温度 17°C
湿度 59%
气压 1028 hPa
能见度10公里或以上
1500米以下无云,无积雨云

METAR: EDDF 072020Z 02009KT CAVOK 17/09 Q1028 NOSIG

时间: 22:54 (20:54 UTC)

预报

该预报发布于3小时和54分钟前的17:00 UTC
预报有效从07日的 18点(UTC)到 08日的 24点(UTC)
风速7节,风向东北
能见度10公里或以上
1500米以下无云,无积雨云
成为
从 08日的 10点(UTC)到 08日的 12点(UTC)
风速5节,风向西南

TAF: EDDF 071700Z 0718/0824 04007KT CAVOK BECMG 0810/0812 22005KT

超过4000个机场的气象观测和天气预报(METAR&TAF报告)。

可查询的气象台以黄色和红色小点在地图上表示。

将鼠标移到小点上方,可查看气象台名称。

然后点击查看天气观测和预报。

如需切换地图:点击带黑十字的绿色按钮放大地图;点击带横线的绿色按钮缩小地图;或者点击绿色箭头查看邻近地区的地图。


METAR-TAF: